Skip Navigation Links Skip Navigation Links

Current Weather

DuPage County, West Chicago, Ill.

For information only: do not use for flight planning or navigation.
Latest weather
Observation time Tuesday, September 28, 2021 3:52 AM CDT
Local time Tuesday, September 28, 2021 4:40 AM CDT
Flight conditions Visual Meteorological Conditions
Winds
Wind direction North (10°)
Wind speed 8 mph
Visibility 10 mi.
Sky condition
Ceiling unlimited
Sky clear
Temperature 56°F
Dewpoint 52°F
Altimeter 29.93 in.Hg
Pressure change last 3 hours-0.01 in.Hg
Pressure rising more quickly
Derived measurements
Relative humidity 87%
Density altitude 732 ft.
Sea-level pressure 29.92 in.Hg
Remarks
Automated weather observing station with precipitation discriminator.
METAR KDPA 280852Z 01007KT 10SM CLR 13/11 A2993 RMK AO2 SLP131 T01330111 53005

Settings

Location code

InnerDrive.Weather 4.0.6770.0 Release CLR 4.0.30319.42000
Copyright ©2018 Inner Drive Technology. All rights reserved. Portions Copyright ©1986-2018 David Braverman.

Find weather

Site navigation


Skip Navigation Links

Place info

Page info

PayPal - The safer, easier way to pay online!

Return home.

Copyright ©2021 Inner Drive Technology. Purveyors of fine, hand-crafted computer software. Page printed 2021-09-28T09:40:07 UTC.